createdAt,value
2022-11-21T00:00:35.274Z,3.34
2022-11-21T00:05:46.770Z,3.51
2022-11-21T00:10:48.905Z,3.54
2022-11-21T00:15:50.538Z,3.39
2022-11-21T00:20:52.107Z,3.27
2022-11-21T00:25:53.778Z,3.31
2022-11-21T00:30:55.443Z,3.45
2022-11-21T00:35:57.248Z,3.45
2022-11-21T00:40:59.025Z,3.38
2022-11-21T00:46:02.834Z,3.33
2022-11-21T00:51:04.909Z,3.46
2022-11-21T00:56:06.592Z,3.38
2022-11-21T01:01:14.022Z,3.39
2022-11-21T01:06:18.774Z,3.53
2022-11-21T01:11:21.627Z,3.55
2022-11-21T01:16:26.830Z,3.27
2022-11-21T01:21:32.581Z,3.32
2022-11-21T01:26:38.407Z,3.51
2022-11-21T01:31:40.218Z,3.43
2022-11-21T01:36:42.119Z,3.37
2022-11-21T01:41:46.053Z,3.38
2022-11-21T01:46:49.460Z,3.31
2022-11-21T01:51:57.166Z,3.15
2022-11-21T01:57:23.479Z,3.39
2022-11-21T02:02:30.933Z,3.31
2022-11-21T02:07:39.684Z,3.03
2022-11-21T02:12:53.941Z,2.84
2022-11-21T02:17:56.546Z,2.94
2022-11-21T02:23:30.138Z,2.79
2022-11-21T02:28:33.550Z,2.77
2022-11-21T02:33:35.292Z,2.85
2022-11-21T02:38:38.844Z,2.83
2022-11-21T02:43:49.866Z,2.98
2022-11-21T02:48:52.120Z,2.98
2022-11-21T02:53:53.698Z,3.22
2022-11-21T02:58:55.338Z,3.01
2022-11-21T03:03:57.039Z,2.83
2022-11-21T03:08:58.726Z,2.95
2022-11-21T03:14:00.378Z,2.93
2022-11-21T03:19:02.183Z,3.05
2022-11-21T03:24:04.171Z,2.98
2022-11-21T03:29:05.762Z,2.99
2022-11-21T03:34:07.542Z,2.98
2022-11-21T03:39:09.350Z,2.99
2022-11-21T03:44:12.149Z,3.00
2022-11-21T03:49:14.275Z,2.95
2022-11-21T03:54:29.325Z,2.83
2022-11-21T03:59:31.159Z,2.85
2022-11-21T04:04:32.896Z,2.92
2022-11-21T04:09:38.682Z,2.83
2022-11-21T04:14:42.402Z,2.78
2022-11-21T04:19:43.986Z,2.72
2022-11-21T04:24:45.701Z,2.72
2022-11-21T04:29:47.814Z,2.64
2022-11-21T04:34:49.486Z,2.66
2022-11-21T04:39:51.169Z,2.71
2022-11-21T04:44:52.803Z,2.60
2022-11-21T04:49:54.382Z,2.53
2022-11-21T04:54:58.066Z,2.63
2022-11-21T05:00:01.971Z,2.65
2022-11-21T05:05:03.678Z,2.69
2022-11-21T05:10:06.701Z,2.55
2022-11-21T05:15:08.915Z,2.51
2022-11-21T05:20:11.207Z,2.51
2022-11-21T05:25:13.897Z,2.59
2022-11-21T05:30:16.022Z,2.54
2022-11-21T05:35:17.750Z,2.68
2022-11-21T05:40:19.279Z,2.51
2022-11-21T05:45:20.899Z,2.42
2022-11-21T05:50:22.803Z,2.50
2022-11-21T05:55:24.414Z,2.60
2022-11-21T06:00:59.741Z,2.54
2022-11-21T06:06:20.902Z,2.67
2022-11-21T06:11:34.587Z,2.71
2022-11-21T06:16:36.263Z,2.75
2022-11-21T06:21:38.090Z,2.69
2022-11-21T06:26:39.814Z,2.60
2022-11-21T06:31:41.457Z,2.64
2022-11-21T06:36:44.740Z,2.72
2022-11-21T06:41:51.116Z,2.95
2022-11-21T06:46:52.917Z,2.90
2022-11-21T06:51:54.569Z,3.07
2022-11-21T06:56:56.220Z,2.94
2022-11-21T07:01:57.881Z,2.98
2022-11-21T07:07:00.048Z,2.84
2022-11-21T07:12:21.642Z,2.66
2022-11-21T07:17:23.306Z,2.78
2022-11-21T07:22:25.036Z,3.06
2022-11-21T07:27:26.716Z,3.06
2022-11-21T07:32:28.740Z,2.87
2022-11-21T07:37:30.420Z,2.83
2022-11-21T07:42:33.236Z,2.87
2022-11-21T07:47:35.051Z,2.93
2022-11-21T07:52:39.213Z,2.97
2022-11-21T07:57:40.830Z,3.01
2022-11-21T08:02:42.442Z,3.04
2022-11-21T08:07:44.164Z,3.05
2022-11-21T08:12:47.136Z,3.07
2022-11-21T08:17:49.062Z,3.10
2022-11-21T08:22:50.743Z,3.11
2022-11-21T08:27:56.541Z,3.20
2022-11-21T08:33:01.119Z,3.09
2022-11-21T08:38:02.819Z,3.06
2022-11-21T08:43:09.660Z,3.17
2022-11-21T08:48:11.904Z,3.22
2022-11-21T08:53:23.742Z,3.15
2022-11-21T08:58:25.414Z,3.20
2022-11-21T09:03:31.143Z,3.17
2022-11-21T09:08:33.606Z,3.32
2022-11-21T09:13:36.529Z,3.33
2022-11-21T09:18:38.184Z,3.41
2022-11-21T09:23:39.983Z,3.57
2022-11-21T09:28:41.661Z,3.68
2022-11-21T09:33:43.336Z,3.86
2022-11-21T09:44:43.989Z,3.57
2022-11-21T09:49:50.107Z,3.76
2022-11-21T09:54:58.272Z,3.81
2022-11-21T10:00:01.513Z,3.90
2022-11-21T10:05:15.272Z,3.91
2022-11-21T10:11:11.544Z,3.92
2022-11-21T10:16:29.219Z,3.95
2022-11-21T10:21:50.456Z,3.91
2022-11-21T10:26:54.564Z,4.04
2022-11-21T10:32:01.793Z,4.18
2022-11-21T10:37:13.500Z,4.16
2022-11-21T10:42:30.672Z,4.21
2022-11-21T10:47:37.586Z,4.29
2022-11-21T10:52:45.089Z,4.48
2022-11-21T10:57:51.771Z,4.57
2022-11-21T11:03:04.846Z,4.55
2022-11-21T11:08:12.438Z,4.56
2022-11-21T11:13:46.825Z,4.66
2022-11-21T11:19:02.847Z,4.75
2022-11-21T11:24:10.451Z,4.79
2022-11-21T11:29:18.283Z,4.82
2022-11-21T11:34:20.357Z,4.89
2022-11-21T11:39:35.346Z,4.94
2022-11-21T11:45:24.855Z,5.13
2022-11-21T11:50:32.387Z,5.23
2022-11-21T11:55:55.841Z,5.37
2022-11-21T12:01:06.639Z,5.47
2022-11-21T12:06:38.245Z,5.65
2022-11-21T12:12:09.754Z,5.85
2022-11-21T12:17:14.928Z,5.96
2022-11-21T12:22:16.683Z,6.03
2022-11-21T12:27:32.851Z,6.13
2022-11-21T12:32:50.348Z,6.21
2022-11-21T12:38:15.587Z,6.18
2022-11-21T12:43:47.139Z,6.19
2022-11-21T12:49:07.343Z,6.18
2022-11-21T12:54:38.913Z,6.26
2022-11-21T13:00:02.506Z,6.29
2022-11-21T13:05:10.609Z,6.29
2022-11-21T13:10:15.783Z,6.33
2022-11-21T13:15:39.890Z,6.35
2022-11-21T13:20:48.729Z,6.38
2022-11-21T13:25:50.564Z,6.41
2022-11-21T13:31:00.931Z,6.43
2022-11-21T13:36:04.683Z,6.46
2022-11-21T13:41:26.366Z,6.44
2022-11-21T13:46:59.712Z,6.43
2022-11-21T13:52:12.401Z,6.44
2022-11-21T13:57:51.643Z,6.43
2022-11-21T14:03:20.853Z,6.39
2022-11-21T14:08:25.349Z,6.34
2022-11-21T14:13:34.670Z,6.29
2022-11-21T14:18:38.933Z,6.27
2022-11-21T14:23:44.365Z,6.29
2022-11-21T14:28:46.130Z,6.29
2022-11-21T14:34:00.862Z,6.27
2022-11-21T14:44:38.287Z,6.17
2022-11-21T14:49:40.021Z,6.13
2022-11-21T14:55:13.493Z,6.13
2022-11-21T15:00:36.071Z,6.16
2022-11-21T15:11:00.467Z,6.11
2022-11-21T15:16:13.092Z,6.10
2022-11-21T15:21:16.412Z,6.06
2022-11-21T15:26:35.698Z,5.99
2022-11-21T15:31:37.657Z,5.97
2022-11-21T15:36:47.261Z,5.98
2022-11-21T15:41:49.005Z,5.98
2022-11-21T15:46:52.213Z,6.00
2022-11-21T15:52:10.377Z,6.03
2022-11-21T15:57:12.884Z,5.98
2022-11-21T16:02:15.665Z,6.04
2022-11-21T16:07:17.438Z,6.13
2022-11-21T16:12:19.171Z,6.10
2022-11-21T16:17:21.323Z,6.09
2022-11-21T16:22:23.036Z,6.11
2022-11-21T16:27:32.100Z,6.07
2022-11-21T16:32:36.223Z,6.07
2022-11-21T16:37:37.996Z,6.10
2022-11-21T16:42:39.693Z,6.08
2022-11-21T16:47:45.837Z,6.04
2022-11-21T16:52:50.807Z,6.07
2022-11-21T16:57:54.948Z,6.02
2022-11-21T17:02:58.048Z,6.06
2022-11-21T17:07:59.687Z,6.04
2022-11-21T17:13:02.414Z,6.06
2022-11-21T17:18:04.027Z,6.00
2022-11-21T17:23:05.913Z,6.02
2022-11-21T17:28:10.255Z,6.07
2022-11-21T17:33:13.617Z,6.05
2022-11-21T17:38:21.338Z,6.00
2022-11-21T17:43:23.732Z,5.94
2022-11-21T17:48:32.027Z,5.89
2022-11-21T17:53:36.465Z,5.98
2022-11-21T17:58:38.625Z,5.86
2022-11-21T18:03:40.769Z,5.89
2022-11-21T18:08:44.468Z,5.84
2022-11-21T18:13:46.500Z,5.85
2022-11-21T18:18:49.768Z,5.81
2022-11-21T18:23:55.942Z,5.77
2022-11-21T18:29:28.771Z,5.76
2022-11-21T18:34:22.636Z,5.78
2022-11-21T18:39:25.148Z,5.81
2022-11-21T18:44:27.226Z,5.76
2022-11-21T18:49:29.287Z,5.75
2022-11-21T18:54:31.262Z,5.76
2022-11-21T18:59:33.395Z,5.67
2022-11-21T19:04:35.205Z,5.71
2022-11-21T19:09:37.206Z,5.66
2022-11-21T19:14:39.470Z,5.73
2022-11-21T19:19:41.305Z,5.75
2022-11-21T19:24:54.903Z,5.67
2022-11-21T19:29:56.678Z,5.69
2022-11-21T19:34:58.378Z,5.66
2022-11-21T19:40:00.143Z,5.70
2022-11-21T19:45:01.811Z,5.73
2022-11-21T19:50:03.618Z,5.74
2022-11-21T19:55:05.695Z,5.76
2022-11-21T20:00:07.975Z,5.75
2022-11-21T20:05:11.713Z,5.73
2022-11-21T20:10:13.529Z,5.68
2022-11-21T20:15:15.237Z,5.58
2022-11-21T20:20:19.334Z,5.59
2022-11-21T20:25:21.087Z,5.60
2022-11-21T20:30:25.084Z,5.59
2022-11-21T20:35:26.829Z,5.56
2022-11-21T20:40:28.578Z,5.52
2022-11-21T20:56:15.677Z,5.61
2022-11-21T21:01:19.949Z,5.53
2022-11-21T21:06:24.265Z,5.51
2022-11-21T21:11:51.020Z,5.55
2022-11-21T21:16:55.152Z,5.54
2022-11-21T21:21:56.852Z,5.59
2022-11-21T21:27:00.469Z,5.55
2022-11-21T21:32:02.101Z,5.51
2022-11-21T21:37:03.722Z,5.50
2022-11-21T21:42:05.454Z,5.50
2022-11-21T21:47:11.161Z,5.52
2022-11-21T21:52:12.851Z,5.53
2022-11-21T21:57:14.665Z,5.50
2022-11-21T22:02:16.471Z,5.50
2022-11-21T22:07:19.915Z,5.47
2022-11-21T22:12:21.753Z,5.45
2022-11-21T22:17:23.441Z,5.55
2022-11-21T22:22:25.109Z,5.53
2022-11-21T22:27:26.806Z,5.55
2022-11-21T22:32:28.426Z,5.56
2022-11-21T22:37:30.211Z,5.59
2022-11-21T22:42:31.980Z,5.61
2022-11-21T22:47:33.837Z,5.58
2022-11-21T22:52:52.848Z,5.59
2022-11-21T22:57:58.603Z,5.64
2022-11-21T23:03:00.284Z,5.57
2022-11-21T23:08:01.929Z,5.62
2022-11-21T23:13:03.625Z,5.62
2022-11-21T23:18:05.354Z,5.59
2022-11-21T23:23:08.002Z,5.63
2022-11-21T23:28:09.737Z,5.67
2022-11-21T23:33:11.771Z,5.63
2022-11-21T23:38:15.339Z,5.77
2022-11-21T23:43:18.190Z,5.66
2022-11-21T23:48:21.149Z,5.65
2022-11-21T23:53:22.978Z,5.70
2022-11-21T23:58:24.697Z,5.64
